Time,TemperatureF,DewpointF,PressureIn,WindDirection,WindDirectionDegrees,WindSpeedMPH,WindSpeedGustMPH,Humidity,HourlyPrecipIn,Conditions,Clouds,dailyrainin,SoftwareType,DateUTC
2013-01-19 00:04:00,29.0,19.0,30.35,SSW,209,6.0,10.0,66,0.00,,,0.00,,2013-01-19 05:04:00,
2013-01-19 00:13:00,29.0,19.0,30.35,SSW,209,6.0,10.0,66,0.00,,,0.00,,2013-01-19 05:13:00,
2013-01-19 00:23:00,30.0,20.0,30.34,SSW,201,3.0,9.0,67,0.00,,,0.00,,2013-01-19 05:23:00,
2013-01-19 00:33:00,30.0,20.0,30.34,SSW,201,3.0,9.0,67,0.00,,,0.00,,2013-01-19 05:33:00,
2013-01-19 00:43:00,30.0,20.0,30.34,SSW,201,3.0,9.0,67,0.00,,,0.00,,2013-01-19 05:43:00,
2013-01-19 00:53:00,30.0,22.0,30.34,South,186,6.0,13.0,71,0.00,,,0.00,,2013-01-19 05:53:00,
2013-01-19 01:03:00,30.0,22.0,30.34,South,186,6.0,13.0,71,0.00,,,0.00,,2013-01-19 06:03:00,
2013-01-19 01:12:00,30.0,22.0,30.34,South,186,6.0,13.0,71,0.00,,,0.00,,2013-01-19 06:12:00,
2013-01-19 01:23:00,30.0,22.0,30.32,SSW,202,5.0,8.0,72,0.00,,,0.00,,2013-01-19 06:23:00,
2013-01-19 01:33:00,30.0,22.0,30.32,SSW,202,5.0,8.0,72,0.00,,,0.00,,2013-01-19 06:33:00,
2013-01-19 01:43:00,30.0,22.0,30.32,SSW,202,5.0,8.0,72,0.00,,,0.00,,2013-01-19 06:43:00,
2013-01-19 01:53:00,30.0,23.0,30.32,SSW,213,6.0,10.0,75,0.00,,,0.00,,2013-01-19 06:53:00,
2013-01-19 02:02:00,30.0,23.0,30.32,SSW,213,6.0,10.0,75,0.00,,,0.00,,2013-01-19 07:02:00,
2013-01-19 02:12:00,30.0,23.0,30.32,SSW,213,6.0,10.0,75,0.00,,,0.00,,2013-01-19 07:12:00,
2013-01-19 02:22:00,30.0,23.0,30.32,SSW,192,6.0,11.0,76,0.00,,,0.00,,2013-01-19 07:22:00,
2013-01-19 02:33:00,30.0,23.0,30.32,SSW,192,6.0,11.0,76,0.00,,,0.00,,2013-01-19 07:33:00,
2013-01-19 02:43:00,30.0,23.0,30.32,SSW,192,6.0,11.0,76,0.00,,,0.00,,2013-01-19 07:43:00,
2013-01-19 02:53:00,30.0,24.0,30.32,SSW,209,8.0,15.0,77,0.00,,,0.00,,2013-01-19 07:53:00,
2013-01-19 03:02:00,30.0,24.0,30.32,SSW,209,8.0,15.0,77,0.00,,,0.00,,2013-01-19 08:02:00,
2013-01-19 03:12:00,30.0,24.0,30.32,SSW,209,8.0,15.0,77,0.00,,,0.00,,2013-01-19 08:12:00,
2013-01-19 03:22:00,30.0,24.0,30.31,SSW,192,6.0,11.0,77,0.00,,,0.00,,2013-01-19 08:22:00,
2013-01-19 03:32:00,30.0,24.0,30.31,SSW,192,6.0,11.0,77,0.00,,,0.00,,2013-01-19 08:32:00,
2013-01-19 03:43:00,30.0,24.0,30.31,SSW,192,6.0,11.0,77,0.00,,,0.00,,2013-01-19 08:43:00,
2013-01-19 03:53:00,30.0,24.0,30.30,SSW,197,6.0,12.0,78,0.00,,,0.00,,2013-01-19 08:53:00,
2013-01-19 04:02:00,30.0,24.0,30.30,SSW,197,6.0,12.0,78,0.00,,,0.00,,2013-01-19 09:02:00,
2013-01-19 04:12:00,30.0,24.0,30.30,SSW,197,6.0,12.0,78,0.00,,,0.00,,2013-01-19 09:12:00,
2013-01-19 04:23:00,30.0,24.0,30.29,SSW,208,6.0,11.0,78,0.00,,,0.00,,2013-01-19 09:23:00,
2013-01-19 04:33:00,30.0,24.0,30.29,SSW,208,6.0,11.0,78,0.00,,,0.00,,2013-01-19 09:33:00,
2013-01-19 04:43:00,30.0,24.0,30.29,SSW,208,6.0,11.0,78,0.00,,,0.00,,2013-01-19 09:43:00,
2013-01-19 04:53:00,30.0,24.0,30.28,SSW,201,5.0,14.0,79,0.00,,,0.00,,2013-01-19 09:53:00,
2013-01-19 05:02:00,30.0,24.0,30.28,SSW,201,5.0,14.0,79,0.00,,,0.00,,2013-01-19 10:02:00,
2013-01-19 05:12:00,30.0,24.0,30.28,SSW,201,5.0,14.0,79,0.00,,,0.00,,2013-01-19 10:12:00,
2013-01-19 05:23:00,30.0,25.0,30.27,SW,223,5.0,10.0,80,0.00,,,0.00,,2013-01-19 10:23:00,
2013-01-19 05:32:00,30.0,25.0,30.27,SW,223,5.0,10.0,80,0.00,,,0.00,,2013-01-19 10:32:00,
2013-01-19 05:43:00,30.0,25.0,30.27,SW,223,5.0,10.0,80,0.00,,,0.00,,2013-01-19 10:43:00,
2013-01-19 05:53:00,30.0,25.0,30.26,SSW,204,6.0,15.0,80,0.00,,,0.00,,2013-01-19 10:53:00,
2013-01-19 06:03:00,30.0,25.0,30.26,SSW,204,6.0,15.0,80,0.00,,,0.00,,2013-01-19 11:03:00,
2013-01-19 06:12:00,30.0,25.0,30.26,SSW,204,6.0,15.0,80,0.00,,,0.00,,2013-01-19 11:12:00,
2013-01-19 06:31:00,30.0,25.0,30.26,SSW,209,3.0,11.0,80,0.00,,,0.00,,2013-01-19 11:31:00,
2013-01-19 07:48:00,30.0,25.0,30.27,SSW,205,6.0,10.0,80,0.00,,,0.00,,2013-01-19 12:48:00,
2013-01-19 07:53:00,30.0,25.0,30.26,SW,217,4.0,12.0,80,0.00,,,0.00,,2013-01-19 12:53:00,
2013-01-19 08:03:00,30.0,25.0,30.26,SW,217,4.0,12.0,80,0.00,,,0.00,,2013-01-19 13:03:00,
2013-01-19 08:13:00,30.0,25.0,30.26,SW,217,4.0,12.0,80,0.00,,,0.00,,2013-01-19 13:13:00,
2013-01-19 08:22:00,30.0,24.0,30.26,WSW,257,7.0,15.0,79,0.00,,,0.00,,2013-01-19 13:22:00,
2013-01-19 08:33:00,30.0,24.0,30.26,WSW,257,7.0,15.0,79,0.00,,,0.00,,2013-01-19 13:33:00,
2013-01-19 08:43:00,30.0,24.0,30.26,WSW,257,7.0,15.0,79,0.00,,,0.00,,2013-01-19 13:43:00,
2013-01-19 08:54:00,31.0,25.0,30.25,WSW,242,5.0,10.0,78,0.00,,,0.00,,2013-01-19 13:54:00,
2013-01-19 09:03:00,31.0,25.0,30.25,WSW,242,5.0,10.0,78,0.00,,,0.00,,2013-01-19 14:03:00,
2013-01-19 09:13:00,31.0,25.0,30.25,WSW,242,5.0,10.0,78,0.00,,,0.00,,2013-01-19 14:13:00,
2013-01-19 09:23:00,33.0,26.0,30.26,SSW,212,7.0,12.0,76,0.00,,,0.00,,2013-01-19 14:23:00,
2013-01-19 09:34:00,33.0,26.0,30.26,SSW,212,7.0,12.0,76,0.00,,,0.00,,2013-01-19 14:34:00,
2013-01-19 09:43:00,33.0,26.0,30.26,SSW,212,7.0,12.0,76,0.00,,,0.00,,2013-01-19 14:43:00,
2013-01-19 09:53:00,35.0,27.0,30.26,SW,221,7.0,11.0,72,0.00,,,0.00,,2013-01-19 14:53:00,
2013-01-19 10:03:00,35.0,27.0,30.26,SW,221,7.0,11.0,72,0.00,,,0.00,,2013-01-19 15:03:00,
2013-01-19 10:13:00,35.0,27.0,30.26,SW,221,7.0,11.0,72,0.00,,,0.00,,2013-01-19 15:13:00,
2013-01-19 10:23:00,38.0,29.0,30.26,SSW,201,7.0,12.0,70,0.00,,,0.00,,2013-01-19 15:23:00,
2013-01-19 10:33:00,38.0,29.0,30.26,SSW,201,7.0,12.0,70,0.00,,,0.00,,2013-01-19 15:33:00,
2013-01-19 10:43:00,38.0,29.0,30.26,SSW,201,7.0,12.0,70,0.00,,,0.00,,2013-01-19 15:43:00,
2013-01-19 10:53:00,40.0,30.0,30.26,SW,218,7.0,13.0,66,0.00,,,0.00,,2013-01-19 15:53:00,
2013-01-19 11:03:00,40.0,30.0,30.26,SW,218,7.0,13.0,66,0.00,,,0.00,,2013-01-19 16:03:00,
2013-01-19 11:13:00,40.0,30.0,30.26,SW,218,7.0,13.0,66,0.00,,,0.00,,2013-01-19 16:13:00,
2013-01-19 11:23:00,42.0,31.0,30.24,SW,219,6.0,9.0,65,0.00,,,0.00,,2013-01-19 16:23:00,
2013-01-19 11:33:00,42.0,31.0,30.24,SW,219,6.0,9.0,65,0.00,,,0.00,,2013-01-19 16:33:00,
2013-01-19 11:43:00,42.0,31.0,30.24,SW,219,6.0,9.0,65,0.00,,,0.00,,2013-01-19 16:43:00,
2013-01-19 11:54:00,43.0,30.0,30.21,SW,234,8.0,12.0,61,0.00,,,0.00,,2013-01-19 16:54:00,
2013-01-19 12:03:00,43.0,30.0,30.21,SW,234,8.0,12.0,61,0.00,,,0.00,,2013-01-19 17:03:00,
2013-01-19 12:22:00,43.0,30.0,30.21,SW,234,8.0,12.0,61,0.00,,,0.00,,2013-01-19 17:22:00,
2013-01-19 12:29:00,45.0,32.0,30.18,SW,222,7.0,12.0,60,0.00,,,0.00,,2013-01-19 17:29:00,
2013-01-19 12:35:00,45.0,32.0,30.18,SW,222,7.0,12.0,60,0.00,,,0.00,,2013-01-19 17:35:00,
2013-01-19 12:50:00,45.0,32.0,30.18,SW,222,7.0,12.0,60,0.00,,,0.00,,2013-01-19 17:50:00,
2013-01-19 12:55:00,48.0,32.0,30.15,SW,225,5.0,14.0,54,0.00,,,0.00,,2013-01-19 17:55:00,
2013-01-19 13:12:00,48.0,32.0,30.15,SW,225,5.0,14.0,54,0.00,,,0.00,,2013-01-19 18:12:00,
2013-01-19 13:28:00,49.0,33.0,30.12,SSW,203,7.0,13.0,53,0.00,,,0.00,,2013-01-19 18:28:00,
2013-01-19 13:35:00,49.0,33.0,30.12,SSW,203,7.0,13.0,53,0.00,,,0.00,,2013-01-19 18:35:00,
2013-01-19 13:48:00,49.0,33.0,30.12,SSW,203,7.0,13.0,53,0.00,,,0.00,,2013-01-19 18:48:00,
2013-01-19 14:09:00,50.0,31.0,30.10,SE,146,9.0,18.0,48,0.00,,,0.00,,2013-01-19 19:09:00,
2013-01-19 14:22:00,50.0,31.0,30.10,SE,146,9.0,18.0,48,0.00,,,0.00,,2013-01-19 19:22:00,
2013-01-19 14:30:00,51.0,31.0,30.09,SSW,209,11.0,19.0,47,0.00,,,0.00,,2013-01-19 19:30:00,
2013-01-19 14:39:00,51.0,31.0,30.09,SSW,209,11.0,19.0,47,0.00,,,0.00,,2013-01-19 19:39:00,
2013-01-19 14:59:00,52.0,32.0,30.07,SW,228,10.0,18.0,46,0.00,,,0.00,,2013-01-19 19:59:00,
2013-01-19 15:10:00,52.0,32.0,30.07,SW,228,10.0,18.0,46,0.00,,,0.00,,2013-01-19 20:10:00,
2013-01-19 15:20:00,52.0,32.0,30.07,SW,228,10.0,18.0,46,0.00,,,0.00,,2013-01-19 20:20:00,
2013-01-19 15:26:00,53.0,32.0,30.05,SSW,213,8.0,14.0,44,0.00,,,0.00,,2013-01-19 20:26:00,
2013-01-19 15:38:00,53.0,32.0,30.05,SSW,213,8.0,14.0,44,0.00,,,0.00,,2013-01-19 20:38:00,
2013-01-19 15:50:00,53.0,32.0,30.05,SSW,213,8.0,14.0,44,0.00,,,0.00,,2013-01-19 20:50:00,
2013-01-19 15:59:00,53.0,31.0,30.04,South,182,10.0,15.0,43,0.00,,,0.00,,2013-01-19 20:59:00,
2013-01-19 16:07:00,53.0,31.0,30.04,South,182,10.0,15.0,43,0.00,,,0.00,,2013-01-19 21:07:00,
2013-01-19 16:15:00,53.0,31.0,30.04,South,182,10.0,15.0,43,0.00,,,0.00,,2013-01-19 21:15:00,
2013-01-19 16:28:00,53.0,31.0,30.03,South,190,7.0,16.0,43,0.00,,,0.00,,2013-01-19 21:28:00,
2013-01-19 16:45:00,53.0,31.0,30.03,South,190,7.0,16.0,43,0.00,,,0.00,,2013-01-19 21:45:00,
2013-01-19 16:53:00,53.0,31.0,30.03,South,190,7.0,16.0,43,0.00,,,0.00,,2013-01-19 21:53:00,
2013-01-19 17:01:00,52.0,30.0,30.02,South,186,8.0,13.0,43,0.00,,,0.00,,2013-01-19 22:01:00,
2013-01-19 17:15:00,52.0,30.0,30.02,South,186,8.0,13.0,43,0.00,,,0.00,,2013-01-19 22:15:00,
2013-01-19 17:28:00,51.0,30.0,30.02,SSW,210,7.0,13.0,44,0.00,,,0.00,,2013-01-19 22:28:00,
2013-01-19 17:35:00,51.0,30.0,30.02,SSW,210,7.0,13.0,44,0.00,,,0.00,,2013-01-19 22:35:00,
2013-01-19 17:49:00,51.0,30.0,30.02,SSW,210,7.0,13.0,44,0.00,,,0.00,,2013-01-19 22:49:00,
2013-01-19 17:58:00,50.0,31.0,30.01,SSW,200,6.0,11.0,47,0.00,,,0.00,,2013-01-19 22:58:00,
2013-01-19 18:13:00,50.0,31.0,30.01,SSW,200,6.0,11.0,47,0.00,,,0.00,,2013-01-19 23:13:00,
2013-01-19 18:27:00,49.0,31.0,30.01,SSW,205,5.0,10.0,49,0.00,,,0.00,,2013-01-19 23:27:00,
2013-01-19 18:34:00,49.0,31.0,30.01,SSW,205,5.0,10.0,49,0.00,,,0.00,,2013-01-19 23:34:00,
2013-01-19 19:08:00,48.0,30.0,30.01,SSW,203,8.0,14.0,50,0.00,,,0.00,,2013-01-20 00:08:00,
2013-01-19 19:17:00,48.0,30.0,30.01,SSW,203,8.0,14.0,50,0.00,,,0.00,,2013-01-20 00:17:00,
2013-01-19 19:26:00,47.0,30.0,30.01,SW,232,8.0,16.0,51,0.00,,,0.00,,2013-01-20 00:26:00,
2013-01-19 19:35:00,47.0,30.0,30.01,SW,232,8.0,16.0,51,0.00,,,0.00,,2013-01-20 00:35:00,
2013-01-19 19:48:00,47.0,30.0,30.01,SW,232,8.0,16.0,51,0.00,,,0.00,,2013-01-20 00:48:00,
2013-01-19 19:58:00,46.0,29.0,30.00,South,187,6.0,12.0,52,0.00,,,0.00,,2013-01-20 00:58:00,
2013-01-19 20:04:00,46.0,29.0,30.00,South,187,6.0,12.0,52,0.00,,,0.00,,2013-01-20 01:04:00,
2013-01-19 20:22:00,46.0,29.0,30.00,South,187,6.0,12.0,52,0.00,,,0.00,,2013-01-20 01:22:00,
2013-01-19 20:28:00,46.0,30.0,29.99,SSW,205,7.0,14.0,54,0.00,,,0.00,,2013-01-20 01:28:00,
2013-01-19 20:37:00,46.0,30.0,29.99,SSW,205,7.0,14.0,54,0.00,,,0.00,,2013-01-20 01:37:00,
2013-01-19 20:52:00,46.0,30.0,29.99,SSW,205,7.0,14.0,54,0.00,,,0.00,,2013-01-20 01:52:00,
2013-01-19 21:04:00,45.0,30.0,29.99,SW,225,6.0,14.0,56,0.00,,,0.00,,2013-01-20 02:04:00,
2013-01-19 21:15:00,45.0,30.0,29.99,SW,225,6.0,14.0,56,0.00,,,0.00,,2013-01-20 02:15:00,
2013-01-19 21:27:00,44.0,31.0,29.98,SSW,194,6.0,13.0,59,0.00,,,0.00,,2013-01-20 02:27:00,
2013-01-19 21:36:00,44.0,31.0,29.98,SSW,194,6.0,13.0,59,0.00,,,0.00,,2013-01-20 02:36:00,
2013-01-19 21:45:00,44.0,31.0,29.98,SSW,194,6.0,13.0,59,0.00,,,0.00,,2013-01-20 02:45:00,
2013-01-19 21:59:00,43.0,30.0,29.97,South,182,7.0,11.0,61,0.00,,,0.00,,2013-01-20 02:59:00,
2013-01-19 22:08:00,43.0,30.0,29.97,South,182,7.0,11.0,61,0.00,,,0.00,,2013-01-20 03:08:00,
2013-01-19 22:15:00,43.0,30.0,29.97,South,182,7.0,11.0,61,0.00,,,0.00,,2013-01-20 03:15:00,
2013-01-19 22:25:00,43.0,31.0,29.96,SSW,204,5.0,10.0,62,0.00,,,0.00,,2013-01-20 03:25:00,
2013-01-19 22:38:00,43.0,31.0,29.96,SSW,204,5.0,10.0,62,0.00,,,0.00,,2013-01-20 03:38:00,
2013-01-19 22:47:00,43.0,31.0,29.96,SSW,204,5.0,10.0,62,0.00,,,0.00,,2013-01-20 03:47:00,
2013-01-19 22:58:00,42.0,30.0,29.94,South,186,6.0,11.0,63,0.00,,,0.00,,2013-01-20 03:58:00,
2013-01-19 23:05:00,42.0,30.0,29.94,South,186,6.0,11.0,63,0.00,,,0.00,,2013-01-20 04:05:00,
2013-01-19 23:15:00,42.0,30.0,29.94,South,186,6.0,11.0,63,0.00,,,0.00,,2013-01-20 04:15:00,
2013-01-19 23:27:00,41.0,30.0,29.92,South,187,7.0,11.0,64,0.00,,,0.00,,2013-01-20 04:27:00,
2013-01-19 23:45:00,41.0,30.0,29.92,South,187,7.0,11.0,64,0.00,,,0.00,,2013-01-20 04:45:00,
2013-01-19 23:58:00,41.0,30.0,29.91,SSW,209,5.0,11.0,65,0.00,,,0.00,,2013-01-20 04:58:00,